sensor_id;sensor_type;location;lat;lon;timestamp;P1;durP1;ratioP1;P2;durP2;ratioP2
12177;SDS011;6152;48.728;9.256;2023-04-03T00:01:17;2.50;;;1.85;;
12177;SDS011;6152;48.728;9.256;2023-04-03T00:03:43;2.90;;;2.20;;
12177;SDS011;6152;48.728;9.256;2023-04-03T00:06:09;1.95;;;1.67;;
12177;SDS011;6152;48.728;9.256;2023-04-03T00:08:37;3.95;;;1.92;;
12177;SDS011;6152;48.728;9.256;2023-04-03T00:11:04;2.08;;;1.90;;
12177;SDS011;6152;48.728;9.256;2023-04-03T00:13:31;2.38;;;2.13;;
12177;SDS011;6152;48.728;9.256;2023-04-03T00:15:59;2.47;;;1.80;;
12177;SDS011;6152;48.728;9.256;2023-04-03T00:18:25;3.27;;;1.93;;
12177;SDS011;6152;48.728;9.256;2023-04-03T00:20:51;1.90;;;1.70;;
12177;SDS011;6152;48.728;9.256;2023-04-03T00:23:17;2.47;;;1.80;;
12177;SDS011;6152;48.728;9.256;2023-04-03T00:25:43;3.45;;;2.33;;
12177;SDS011;6152;48.728;9.256;2023-04-03T00:28:10;2.22;;;1.95;;
12177;SDS011;6152;48.728;9.256;2023-04-03T00:30:36;1.88;;;1.67;;
12177;SDS011;6152;48.728;9.256;2023-04-03T00:33:02;2.20;;;1.95;;
12177;SDS011;6152;48.728;9.256;2023-04-03T00:35:28;2.40;;;1.92;;
12177;SDS011;6152;48.728;9.256;2023-04-03T00:37:55;3.88;;;2.10;;
12177;SDS011;6152;48.728;9.256;2023-04-03T00:40:25;3.67;;;1.92;;
12177;SDS011;6152;48.728;9.256;2023-04-03T00:42:54;2.75;;;2.00;;
12177;SDS011;6152;48.728;9.256;2023-04-03T00:45:24;2.40;;;2.20;;
12177;SDS011;6152;48.728;9.256;2023-04-03T00:47:58;3.75;;;1.98;;
12177;SDS011;6152;48.728;9.256;2023-04-03T00:50:28;3.35;;;2.25;;
12177;SDS011;6152;48.728;9.256;2023-04-03T00:52:55;2.28;;;1.63;;
12177;SDS011;6152;48.728;9.256;2023-04-03T00:55:22;3.28;;;1.95;;
12177;SDS011;6152;48.728;9.256;2023-04-03T00:57:49;2.20;;;1.90;;
12177;SDS011;6152;48.728;9.256;2023-04-03T01:00:16;2.92;;;2.00;;
12177;SDS011;6152;48.728;9.256;2023-04-03T01:02:45;3.30;;;2.10;;
12177;SDS011;6152;48.728;9.256;2023-04-03T01:05:11;2.28;;;1.70;;
12177;SDS011;6152;48.728;9.256;2023-04-03T01:07:40;2.65;;;1.90;;
12177;SDS011;6152;48.728;9.256;2023-04-03T01:10:07;2.83;;;2.30;;
12177;SDS011;6152;48.728;9.256;2023-04-03T01:12:37;2.17;;;2.00;;
12177;SDS011;6152;48.728;9.256;2023-04-03T01:15:06;3.33;;;1.80;;
12177;SDS011;6152;48.728;9.256;2023-04-03T01:20:38;2.47;;;1.75;;
12177;SDS011;6152;48.728;9.256;2023-04-03T01:25:37;2.90;;;2.22;;
12177;SDS011;6152;48.728;9.256;2023-04-03T01:28:03;2.40;;;1.80;;
12177;SDS011;6152;48.728;9.256;2023-04-03T01:30:33;3.45;;;1.85;;
12177;SDS011;6152;48.728;9.256;2023-04-03T01:33:01;3.55;;;2.15;;
12177;SDS011;6152;48.728;9.256;2023-04-03T01:35:27;2.60;;;1.88;;
12177;SDS011;6152;48.728;9.256;2023-04-03T01:37:53;2.00;;;1.80;;
12177;SDS011;6152;48.728;9.256;2023-04-03T01:40:19;2.83;;;1.80;;
12177;SDS011;6152;48.728;9.256;2023-04-03T01:42:45;1.75;;;1.60;;
12177;SDS011;6152;48.728;9.256;2023-04-03T01:45:11;2.75;;;1.92;;
12177;SDS011;6152;48.728;9.256;2023-04-03T01:47:37;1.80;;;1.70;;
12177;SDS011;6152;48.728;9.256;2023-04-03T01:50:04;1.90;;;1.67;;
12177;SDS011;6152;48.728;9.256;2023-04-03T01:52:30;3.92;;;1.90;;
12177;SDS011;6152;48.728;9.256;2023-04-03T01:54:56;2.78;;;1.90;;
12177;SDS011;6152;48.728;9.256;2023-04-03T01:57:22;2.05;;;1.85;;
12177;SDS011;6152;48.728;9.256;2023-04-03T01:59:48;4.00;;;2.17;;
12177;SDS011;6152;48.728;9.256;2023-04-03T02:02:16;2.20;;;1.95;;
12177;SDS011;6152;48.728;9.256;2023-04-03T02:04:42;2.28;;;2.08;;
12177;SDS011;6152;48.728;9.256;2023-04-03T02:07:08;3.30;;;1.83;;
12177;SDS011;6152;48.728;9.256;2023-04-03T02:09:34;2.67;;;1.92;;
12177;SDS011;6152;48.728;9.256;2023-04-03T02:12:01;2.20;;;2.00;;
12177;SDS011;6152;48.728;9.256;2023-04-03T02:14:27;2.10;;;1.55;;
12177;SDS011;6152;48.728;9.256;2023-04-03T02:16:54;2.53;;;1.92;;
12177;SDS011;6152;48.728;9.256;2023-04-03T02:19:20;2.63;;;2.03;;
12177;SDS011;6152;48.728;9.256;2023-04-03T02:21:46;3.45;;;2.13;;
12177;SDS011;6152;48.728;9.256;2023-04-03T02:24:12;3.15;;;1.80;;
12177;SDS011;6152;48.728;9.256;2023-04-03T02:26:39;4.18;;;2.10;;
12177;SDS011;6152;48.728;9.256;2023-04-03T02:29:05;1.70;;;1.60;;
12177;SDS011;6152;48.728;9.256;2023-04-03T02:31:31;2.10;;;1.90;;
12177;SDS011;6152;48.728;9.256;2023-04-03T02:33:57;1.70;;;1.60;;
12177;SDS011;6152;48.728;9.256;2023-04-03T02:36:23;2.08;;;1.85;;
12177;SDS011;6152;48.728;9.256;2023-04-03T02:38:49;3.30;;;2.20;;
12177;SDS011;6152;48.728;9.256;2023-04-03T02:41:15;1.90;;;1.75;;
12177;SDS011;6152;48.728;9.256;2023-04-03T02:43:41;2.28;;;2.00;;
12177;SDS011;6152;48.728;9.256;2023-04-03T02:46:08;3.47;;;1.98;;
12177;SDS011;6152;48.728;9.256;2023-04-03T02:48:34;2.22;;;1.70;;
12177;SDS011;6152;48.728;9.256;2023-04-03T02:51:01;3.83;;;1.88;;
12177;SDS011;6152;48.728;9.256;2023-04-03T02:53:27;4.10;;;2.15;;
12177;SDS011;6152;48.728;9.256;2023-04-03T02:55:53;1.95;;;1.75;;
12177;SDS011;6152;48.728;9.256;2023-04-03T02:58:19;3.53;;;2.20;;
12177;SDS011;6152;48.728;9.256;2023-04-03T03:00:45;2.20;;;2.00;;
12177;SDS011;6152;48.728;9.256;2023-04-03T03:03:11;2.10;;;1.83;;
12177;SDS011;6152;48.728;9.256;2023-04-03T03:05:39;2.78;;;2.08;;
12177;SDS011;6152;48.728;9.256;2023-04-03T03:08:05;2.03;;;1.88;;
12177;SDS011;6152;48.728;9.256;2023-04-03T03:10:31;2.20;;;2.00;;
12177;SDS011;6152;48.728;9.256;2023-04-03T03:12:57;3.47;;;2.08;;
12177;SDS011;6152;48.728;9.256;2023-04-03T03:15:23;2.30;;;2.00;;
12177;SDS011;6152;48.728;9.256;2023-04-03T03:17:49;1.73;;;1.55;;
12177;SDS011;6152;48.728;9.256;2023-04-03T03:20:15;2.47;;;1.88;;
12177;SDS011;6152;48.728;9.256;2023-04-03T03:22:42;2.22;;;2.03;;
12177;SDS011;6152;48.728;9.256;2023-04-03T03:25:08;2.20;;;2.00;;
12177;SDS011;6152;48.728;9.256;2023-04-03T03:27:35;2.72;;;1.92;;
12177;SDS011;6152;48.728;9.256;2023-04-03T03:30:01;1.80;;;1.70;;
12177;SDS011;6152;48.728;9.256;2023-04-03T03:32:27;1.65;;;1.40;;
12177;SDS011;6152;48.728;9.256;2023-04-03T03:34:53;1.80;;;1.60;;
12177;SDS011;6152;48.728;9.256;2023-04-03T03:37:19;2.28;;;1.67;;
12177;SDS011;6152;48.728;9.256;2023-04-03T03:39:45;2.30;;;1.90;;
12177;SDS011;6152;48.728;9.256;2023-04-03T03:42:12;2.03;;;1.73;;
12177;SDS011;6152;48.728;9.256;2023-04-03T03:44:38;1.80;;;1.70;;
12177;SDS011;6152;48.728;9.256;2023-04-03T03:47:04;1.77;;;1.50;;
12177;SDS011;6152;48.728;9.256;2023-04-03T03:49:31;2.80;;;1.67;;
12177;SDS011;6152;48.728;9.256;2023-04-03T03:51:57;4.18;;;1.90;;
12177;SDS011;6152;48.728;9.256;2023-04-03T03:54:23;2.38;;;1.50;;
12177;SDS011;6152;48.728;9.256;2023-04-03T03:56:49;1.42;;;1.33;;
12177;SDS011;6152;48.728;9.256;2023-04-03T03:59:15;1.65;;;1.50;;
12177;SDS011;6152;48.728;9.256;2023-04-03T04:01:41;2.97;;;1.27;;
12177;SDS011;6152;48.728;9.256;2023-04-03T04:04:07;1.45;;;1.35;;
12177;SDS011;6152;48.728;9.256;2023-04-03T04:06:33;1.75;;;1.60;;
12177;SDS011;6152;48.728;9.256;2023-04-03T04:09:00;1.67;;;1.48;;
12177;SDS011;6152;48.728;9.256;2023-04-03T04:11:26;1.50;;;1.40;;
12177;SDS011;6152;48.728;9.256;2023-04-03T04:13:52;4.57;;;1.70;;
12177;SDS011;6152;48.728;9.256;2023-04-03T04:16:18;2.05;;;1.45;;
12177;SDS011;6152;48.728;9.256;2023-04-03T04:18:45;3.15;;;1.85;;
12177;SDS011;6152;48.728;9.256;2023-04-03T04:21:11;2.38;;;1.80;;
12177;SDS011;6152;48.728;9.256;2023-04-03T04:23:37;1.83;;;1.73;;
12177;SDS011;6152;48.728;9.256;2023-04-03T04:26:03;1.52;;;1.42;;
12177;SDS011;6152;48.728;9.256;2023-04-03T04:28:29;2.55;;;1.67;;
12177;SDS011;6152;48.728;9.256;2023-04-03T04:30:56;2.20;;;1.63;;
12177;SDS011;6152;48.728;9.256;2023-04-03T04:33:22;1.63;;;1.52;;
12177;SDS011;6152;48.728;9.256;2023-04-03T04:35:48;1.60;;;1.50;;
12177;SDS011;6152;48.728;9.256;2023-04-03T04:38:14;2.15;;;1.67;;
12177;SDS011;6152;48.728;9.256;2023-04-03T04:40:41;8.23;;;2.00;;
12177;SDS011;6152;48.728;9.256;2023-04-03T04:43:07;1.50;;;1.40;;
12177;SDS011;6152;48.728;9.256;2023-04-03T04:45:33;1.75;;;1.50;;
12177;SDS011;6152;48.728;9.256;2023-04-03T04:47:59;1.92;;;1.27;;
12177;SDS011;6152;48.728;9.256;2023-04-03T04:50:25;2.05;;;1.83;;
12177;SDS011;6152;48.728;9.256;2023-04-03T04:52:51;1.42;;;1.33;;
12177;SDS011;6152;48.728;9.256;2023-04-03T04:55:17;3.22;;;1.60;;
12177;SDS011;6152;48.728;9.256;2023-04-03T04:57:44;3.10;;;1.67;;
12177;SDS011;6152;48.728;9.256;2023-04-03T05:00:10;7.57;;;3.50;;
12177;SDS011;6152;48.728;9.256;2023-04-03T05:02:37;5.05;;;3.05;;
12177;SDS011;6152;48.728;9.256;2023-04-03T05:05:03;3.13;;;2.38;;
12177;SDS011;6152;48.728;9.256;2023-04-03T05:07:29;2.15;;;1.80;;
12177;SDS011;6152;48.728;9.256;2023-04-03T05:09:55;2.50;;;1.33;;
12177;SDS011;6152;48.728;9.256;2023-04-03T05:12:21;2.40;;;1.50;;
12177;SDS011;6152;48.728;9.256;2023-04-03T05:14:47;2.13;;;1.10;;
12177;SDS011;6152;48.728;9.256;2023-04-03T05:17:14;1.85;;;1.38;;
12177;SDS011;6152;48.728;9.256;2023-04-03T05:19:40;1.35;;;1.27;;
12177;SDS011;6152;48.728;9.256;2023-04-03T05:22:06;2.05;;;1.58;;
12177;SDS011;6152;48.728;9.256;2023-04-03T05:24:32;1.67;;;1.30;;
12177;SDS011;6152;48.728;9.256;2023-04-03T05:26:58;1.50;;;1.20;;
12177;SDS011;6152;48.728;9.256;2023-04-03T05:29:24;2.40;;;1.27;;
12177;SDS011;6152;48.728;9.256;2023-04-03T05:31:50;1.52;;;1.33;;
12177;SDS011;6152;48.728;9.256;2023-04-03T05:34:17;2.50;;;1.30;;
12177;SDS011;6152;48.728;9.256;2023-04-03T05:36:43;1.38;;;1.27;;
12177;SDS011;6152;48.728;9.256;2023-04-03T05:39:09;3.00;;;1.38;;
12177;SDS011;6152;48.728;9.256;2023-04-03T05:41:35;1.38;;;1.27;;
12177;SDS011;6152;48.728;9.256;2023-04-03T05:44:02;3.15;;;1.35;;
12177;SDS011;6152;48.728;9.256;2023-04-03T05:46:28;2.97;;;1.70;;
12177;SDS011;6152;48.728;9.256;2023-04-03T05:48:54;2.35;;;1.38;;
12177;SDS011;6152;48.728;9.256;2023-04-03T05:51:24;1.52;;;1.17;;
12177;SDS011;6152;48.728;9.256;2023-04-03T05:53:58;2.75;;;1.83;;
12177;SDS011;6152;48.728;9.256;2023-04-03T05:56:42;3.45;;;2.03;;
12177;SDS011;6152;48.728;9.256;2023-04-03T05:59:08;3.28;;;1.88;;
12177;SDS011;6152;48.728;9.256;2023-04-03T06:01:35;2.30;;;1.50;;
12177;SDS011;6152;48.728;9.256;2023-04-03T06:04:02;2.42;;;1.70;;
12177;SDS011;6152;48.728;9.256;2023-04-03T06:06:44;2.55;;;1.75;;
12177;SDS011;6152;48.728;9.256;2023-04-03T06:09:12;1.83;;;1.63;;
12177;SDS011;6152;48.728;9.256;2023-04-03T06:11:40;1.63;;;1.42;;
12177;SDS011;6152;48.728;9.256;2023-04-03T06:14:06;6.75;;;1.70;;
12177;SDS011;6152;48.728;9.256;2023-04-03T06:16:33;2.55;;;1.67;;
12177;SDS011;6152;48.728;9.256;2023-04-03T06:19:00;1.77;;;1.65;;
12177;SDS011;6152;48.728;9.256;2023-04-03T06:21:26;3.90;;;1.52;;
12177;SDS011;6152;48.728;9.256;2023-04-03T06:23:52;2.38;;;1.33;;
12177;SDS011;6152;48.728;9.256;2023-04-03T06:26:18;1.85;;;1.23;;
12177;SDS011;6152;48.728;9.256;2023-04-03T06:28:45;3.40;;;1.52;;
12177;SDS011;6152;48.728;9.256;2023-04-03T06:31:11;1.50;;;1.20;;
12177;SDS011;6152;48.728;9.256;2023-04-03T06:33:37;1.25;;;1.15;;
12177;SDS011;6152;48.728;9.256;2023-04-03T06:36:04;2.78;;;1.50;;
12177;SDS011;6152;48.728;9.256;2023-04-03T06:38:32;1.38;;;1.20;;
12177;SDS011;6152;48.728;9.256;2023-04-03T06:40:58;1.77;;;1.40;;
12177;SDS011;6152;48.728;9.256;2023-04-03T06:43:25;2.88;;;1.40;;
12177;SDS011;6152;48.728;9.256;2023-04-03T06:45:51;3.15;;;1.58;;
12177;SDS011;6152;48.728;9.256;2023-04-03T06:48:17;1.67;;;1.30;;
12177;SDS011;6152;48.728;9.256;2023-04-03T06:50:43;2.03;;;1.20;;
12177;SDS011;6152;48.728;9.256;2023-04-03T06:53:10;6.07;;;1.50;;
12177;SDS011;6152;48.728;9.256;2023-04-03T06:55:37;3.40;;;1.58;;
12177;SDS011;6152;48.728;9.256;2023-04-03T06:58:03;1.50;;;1.30;;
12177;SDS011;6152;48.728;9.256;2023-04-03T07:00:30;1.63;;;1.50;;
12177;SDS011;6152;48.728;9.256;2023-04-03T07:02:56;1.25;;;1.15;;
12177;SDS011;6152;48.728;9.256;2023-04-03T07:05:22;1.60;;;1.42;;
12177;SDS011;6152;48.728;9.256;2023-04-03T07:07:49;1.58;;;1.40;;
12177;SDS011;6152;48.728;9.256;2023-04-03T07:10:16;2.40;;;1.20;;
12177;SDS011;6152;48.728;9.256;2023-04-03T07:12:43;1.33;;;1.20;;
12177;SDS011;6152;48.728;9.256;2023-04-03T07:15:09;1.98;;;1.30;;
12177;SDS011;6152;48.728;9.256;2023-04-03T07:17:37;1.63;;;1.00;;
12177;SDS011;6152;48.728;9.256;2023-04-03T07:20:04;2.88;;;1.30;;
12177;SDS011;6152;48.728;9.256;2023-04-03T07:22:31;3.75;;;1.42;;
12177;SDS011;6152;48.728;9.256;2023-04-03T07:24:57;2.25;;;1.30;;
12177;SDS011;6152;48.728;9.256;2023-04-03T07:27:27;3.08;;;1.48;;
12177;SDS011;6152;48.728;9.256;2023-04-03T07:29:53;1.80;;;1.10;;
12177;SDS011;6152;48.728;9.256;2023-04-03T07:32:21;1.52;;;1.42;;
12177;SDS011;6152;48.728;9.256;2023-04-03T07:34:47;2.38;;;1.63;;
12177;SDS011;6152;48.728;9.256;2023-04-03T07:37:13;3.28;;;1.40;;
12177;SDS011;6152;48.728;9.256;2023-04-03T07:39:39;2.08;;;1.30;;
12177;SDS011;6152;48.728;9.256;2023-04-03T07:42:08;1.55;;;1.30;;
12177;SDS011;6152;48.728;9.256;2023-04-03T07:44:35;3.22;;;1.42;;
12177;SDS011;6152;48.728;9.256;2023-04-03T07:47:01;2.70;;;1.42;;
12177;SDS011;6152;48.728;9.256;2023-04-03T07:49:27;2.42;;;1.20;;
12177;SDS011;6152;48.728;9.256;2023-04-03T07:51:53;1.33;;;1.20;;
12177;SDS011;6152;48.728;9.256;2023-04-03T07:54:19;1.33;;;1.23;;
12177;SDS011;6152;48.728;9.256;2023-04-03T07:56:45;1.73;;;1.20;;
12177;SDS011;6152;48.728;9.256;2023-04-03T07:59:12;3.75;;;1.40;;
12177;SDS011;6152;48.728;9.256;2023-04-03T08:01:38;1.73;;;1.33;;
12177;SDS011;6152;48.728;9.256;2023-04-03T08:04:04;1.30;;;1.20;;
12177;SDS011;6152;48.728;9.256;2023-04-03T08:06:31;1.48;;;1.38;;
12177;SDS011;6152;48.728;9.256;2023-04-03T08:09:00;1.27;;;1.02;;
12177;SDS011;6152;48.728;9.256;2023-04-03T08:11:28;3.72;;;1.40;;
12177;SDS011;6152;48.728;9.256;2023-04-03T08:13:55;2.67;;;1.20;;
12177;SDS011;6152;48.728;9.256;2023-04-03T08:16:22;1.88;;;1.50;;
12177;SDS011;6152;48.728;9.256;2023-04-03T08:18:51;1.58;;;1.08;;
12177;SDS011;6152;48.728;9.256;2023-04-03T08:21:18;2.67;;;1.20;;
12177;SDS011;6152;48.728;9.256;2023-04-03T08:23:47;1.48;;;1.30;;
12177;SDS011;6152;48.728;9.256;2023-04-03T08:26:18;1.52;;;1.27;;
12177;SDS011;6152;48.728;9.256;2023-04-03T08:28:46;2.35;;;1.23;;
12177;SDS011;6152;48.728;9.256;2023-04-03T08:31:14;3.72;;;1.33;;
12177;SDS011;6152;48.728;9.256;2023-04-03T08:33:43;1.70;;;1.50;;
12177;SDS011;6152;48.728;9.256;2023-04-03T08:36:43;1.20;;;1.10;;
12177;SDS011;6152;48.728;9.256;2023-04-03T08:39:02;2.80;;;1.65;;
12177;SDS011;6152;48.728;9.256;2023-04-03T08:41:35;1.25;;;1.15;;
12177;SDS011;6152;48.728;9.256;2023-04-03T08:49:51;2.15;;;1.42;;
12177;SDS011;6152;48.728;9.256;2023-04-03T08:55:29;1.45;;;1.35;;
12177;SDS011;6152;48.728;9.256;2023-04-03T08:58:12;1.10;;;1.00;;
12177;SDS011;6152;48.728;9.256;2023-04-03T09:03:28;1.30;;;1.20;;
12177;SDS011;6152;48.728;9.256;2023-04-03T09:06:11;1.50;;;1.40;;
12177;SDS011;6152;48.728;9.256;2023-04-03T09:11:39;1.60;;;1.23;;
12177;SDS011;6152;48.728;9.256;2023-04-03T09:17:04;3.22;;;1.60;;
12177;SDS011;6152;48.728;9.256;2023-04-03T09:19:57;1.50;;;1.33;;
12177;SDS011;6152;48.728;9.256;2023-04-03T09:22:33;1.45;;;1.35;;
12177;SDS011;6152;48.728;9.256;2023-04-03T09:25:17;1.67;;;0.95;;
12177;SDS011;6152;48.728;9.256;2023-04-03T09:27:59;2.15;;;1.40;;
12177;SDS011;6152;48.728;9.256;2023-04-03T09:30:26;1.58;;;1.40;;
12177;SDS011;6152;48.728;9.256;2023-04-03T09:32:53;1.77;;;1.27;;
12177;SDS011;6152;48.728;9.256;2023-04-03T09:35:34;1.48;;;1.20;;
12177;SDS011;6152;48.728;9.256;2023-04-03T09:40:41;1.23;;;1.13;;
12177;SDS011;6152;48.728;9.256;2023-04-03T09:43:25;3.60;;;1.20;;
12177;SDS011;6152;48.728;9.256;2023-04-03T09:45:56;0.90;;;0.90;;
12177;SDS011;6152;48.728;9.256;2023-04-03T09:49:01;3.35;;;1.30;;
12177;SDS011;6152;48.728;9.256;2023-04-03T09:51:29;1.40;;;1.10;;
12177;SDS011;6152;48.728;9.256;2023-04-03T09:53:56;3.13;;;1.30;;
12177;SDS011;6152;48.728;9.256;2023-04-03T09:56:29;2.72;;;1.40;;
12177;SDS011;6152;48.728;9.256;2023-04-03T10:04:09;0.65;;;0.60;;
12177;SDS011;6152;48.728;9.256;2023-04-03T10:06:37;1.33;;;0.95;;
12177;SDS011;6152;48.728;9.256;2023-04-03T10:11:58;2.75;;;1.38;;
12177;SDS011;6152;48.728;9.256;2023-04-03T10:14:26;2.33;;;1.00;;
12177;SDS011;6152;48.728;9.256;2023-04-03T10:17:02;3.15;;;1.30;;
12177;SDS011;6152;48.728;9.256;2023-04-03T10:19:59;1.33;;;1.10;;
12177;SDS011;6152;48.728;9.256;2023-04-03T10:23:33;1.63;;;1.00;;
12177;SDS011;6152;48.728;9.256;2023-04-03T10:34:18;3.13;;;1.00;;
12177;SDS011;6152;48.728;9.256;2023-04-03T10:37:01;1.20;;;1.10;;
12177;SDS011;6152;48.728;9.256;2023-04-03T10:39:36;1.83;;;1.10;;
12177;SDS011;6152;48.728;9.256;2023-04-03T10:42:18;2.33;;;1.05;;
12177;SDS011;6152;48.728;9.256;2023-04-03T10:56:37;4.45;;;1.30;;
12177;SDS011;6152;48.728;9.256;2023-04-03T10:59:27;1.30;;;1.10;;
12177;SDS011;6152;48.728;9.256;2023-04-03T11:05:04;3.72;;;1.02;;
12177;SDS011;6152;48.728;9.256;2023-04-03T11:07:42;1.75;;;1.00;;
12177;SDS011;6152;48.728;9.256;2023-04-03T11:10:18;0.80;;;0.80;;
12177;SDS011;6152;48.728;9.256;2023-04-03T11:12:51;1.50;;;1.10;;
12177;SDS011;6152;48.728;9.256;2023-04-03T11:15:26;1.08;;;0.98;;
12177;SDS011;6152;48.728;9.256;2023-04-03T11:17:59;1.42;;;1.13;;
12177;SDS011;6152;48.728;9.256;2023-04-03T11:20:57;1.30;;;1.08;;
12177;SDS011;6152;48.728;9.256;2023-04-03T11:23:33;1.40;;;0.70;;
12177;SDS011;6152;48.728;9.256;2023-04-03T11:26:07;1.33;;;0.70;;
12177;SDS011;6152;48.728;9.256;2023-04-03T11:28:37;1.30;;;0.95;;
12177;SDS011;6152;48.728;9.256;2023-04-03T11:33:49;2.25;;;0.82;;
12177;SDS011;6152;48.728;9.256;2023-04-03T11:36:31;2.75;;;1.08;;
12177;SDS011;6152;48.728;9.256;2023-04-03T11:41:48;1.17;;;0.60;;
12177;SDS011;6152;48.728;9.256;2023-04-03T11:44:32;1.38;;;0.70;;
12177;SDS011;6152;48.728;9.256;2023-04-03T11:47:02;0.52;;;0.52;;
12177;SDS011;6152;48.728;9.256;2023-04-03T12:16:24;2.47;;;0.65;;
12177;SDS011;6152;48.728;9.256;2023-04-03T12:34:53;0.63;;;0.63;;
12177;SDS011;6152;48.728;9.256;2023-04-03T12:54:13;1.85;;;0.90;;
12177;SDS011;6152;48.728;9.256;2023-04-03T12:56:40;0.80;;;0.60;;
12177;SDS011;6152;48.728;9.256;2023-04-03T12:59:16;1.77;;;0.80;;
12177;SDS011;6152;48.728;9.256;2023-04-03T13:01:43;0.80;;;0.80;;
12177;SDS011;6152;48.728;9.256;2023-04-03T13:04:17;1.55;;;0.90;;
12177;SDS011;6152;48.728;9.256;2023-04-03T13:06:43;1.05;;;0.70;;
12177;SDS011;6152;48.728;9.256;2023-04-03T13:11:47;3.85;;;1.10;;
12177;SDS011;6152;48.728;9.256;2023-04-03T13:14:16;2.35;;;0.82;;
12177;SDS011;6152;48.728;9.256;2023-04-03T13:16:53;0.60;;;0.60;;
12177;SDS011;6152;48.728;9.256;2023-04-03T13:19:22;1.42;;;0.73;;
12177;SDS011;6152;48.728;9.256;2023-04-03T13:21:50;1.88;;;0.90;;
12177;SDS011;6152;48.728;9.256;2023-04-03T13:24:23;1.67;;;0.80;;
12177;SDS011;6152;48.728;9.256;2023-04-03T13:26:50;4.20;;;0.95;;
12177;SDS011;6152;48.728;9.256;2023-04-03T13:29:21;1.58;;;1.00;;
12177;SDS011;6152;48.728;9.256;2023-04-03T13:31:54;1.52;;;0.80;;
12177;SDS011;6152;48.728;9.256;2023-04-03T13:34:22;1.30;;;0.85;;
12177;SDS011;6152;48.728;9.256;2023-04-03T13:39:30;1.88;;;0.80;;
12177;SDS011;6152;48.728;9.256;2023-04-03T13:41:58;1.98;;;1.13;;
12177;SDS011;6152;48.728;9.256;2023-04-03T13:44:33;1.27;;;1.00;;
12177;SDS011;6152;48.728;9.256;2023-04-03T13:47:14;1.35;;;0.70;;
12177;SDS011;6152;48.728;9.256;2023-04-03T13:49:46;1.45;;;1.13;;
12177;SDS011;6152;48.728;9.256;2023-04-03T13:52:30;1.05;;;0.75;;
12177;SDS011;6152;48.728;9.256;2023-04-03T13:55:23;0.90;;;0.50;;
12177;SDS011;6152;48.728;9.256;2023-04-03T14:00:48;1.38;;;0.95;;
12177;SDS011;6152;48.728;9.256;2023-04-03T14:03:30;0.65;;;0.65;;
12177;SDS011;6152;48.728;9.256;2023-04-03T14:06:07;0.90;;;0.80;;
12177;SDS011;6152;48.728;9.256;2023-04-03T14:08:40;1.50;;;0.77;;
12177;SDS011;6152;48.728;9.256;2023-04-03T14:11:09;1.70;;;0.82;;
12177;SDS011;6152;48.728;9.256;2023-04-03T14:13:39;1.30;;;1.02;;
12177;SDS011;6152;48.728;9.256;2023-04-03T14:16:06;0.90;;;0.90;;
12177;SDS011;6152;48.728;9.256;2023-04-03T14:18:32;2.47;;;1.08;;
12177;SDS011;6152;48.728;9.256;2023-04-03T14:20:58;1.25;;;1.25;;
12177;SDS011;6152;48.728;9.256;2023-04-03T14:23:24;1.48;;;0.80;;
12177;SDS011;6152;48.728;9.256;2023-04-03T14:25:50;2.08;;;1.27;;
12177;SDS011;6152;48.728;9.256;2023-04-03T14:28:20;1.48;;;1.20;;
12177;SDS011;6152;48.728;9.256;2023-04-03T14:30:48;0.90;;;0.90;;
12177;SDS011;6152;48.728;9.256;2023-04-03T14:33:18;2.53;;;1.45;;
12177;SDS011;6152;48.728;9.256;2023-04-03T14:35:46;1.00;;;1.00;;
12177;SDS011;6152;48.728;9.256;2023-04-03T14:38:26;1.95;;;0.80;;
12177;SDS011;6152;48.728;9.256;2023-04-03T14:40:54;1.48;;;0.80;;
12177;SDS011;6152;48.728;9.256;2023-04-03T14:43:21;2.10;;;1.08;;
12177;SDS011;6152;48.728;9.256;2023-04-03T14:45:48;2.70;;;1.30;;
12177;SDS011;6152;48.728;9.256;2023-04-03T14:48:17;1.60;;;1.10;;
12177;SDS011;6152;48.728;9.256;2023-04-03T14:50:48;2.13;;;1.20;;
12177;SDS011;6152;48.728;9.256;2023-04-03T14:53:16;1.80;;;1.15;;
12177;SDS011;6152;48.728;9.256;2023-04-03T14:55:46;1.33;;;0.85;;
12177;SDS011;6152;48.728;9.256;2023-04-03T14:58:16;1.35;;;1.02;;
12177;SDS011;6152;48.728;9.256;2023-04-03T15:00:43;1.00;;;1.00;;
12177;SDS011;6152;48.728;9.256;2023-04-03T15:03:17;1.10;;;0.88;;
12177;SDS011;6152;48.728;9.256;2023-04-03T15:05:45;1.80;;;1.10;;
12177;SDS011;6152;48.728;9.256;2023-04-03T15:08:17;1.00;;;0.90;;
12177;SDS011;6152;48.728;9.256;2023-04-03T15:10:46;2.22;;;1.10;;
12177;SDS011;6152;48.728;9.256;2023-04-03T15:13:13;1.20;;;1.10;;
12177;SDS011;6152;48.728;9.256;2023-04-03T15:15:39;2.97;;;0.80;;
12177;SDS011;6152;48.728;9.256;2023-04-03T15:18:06;1.05;;;0.98;;
12177;SDS011;6152;48.728;9.256;2023-04-03T15:20:35;1.80;;;0.73;;
12177;SDS011;6152;48.728;9.256;2023-04-03T15:23:01;1.20;;;0.90;;
12177;SDS011;6152;48.728;9.256;2023-04-03T15:25:27;0.98;;;0.63;;
12177;SDS011;6152;48.728;9.256;2023-04-03T15:27:54;0.93;;;0.93;;
12177;SDS011;6152;48.728;9.256;2023-04-03T15:30:22;0.90;;;0.85;;
12177;SDS011;6152;48.728;9.256;2023-04-03T15:32:49;1.27;;;0.68;;
12177;SDS011;6152;48.728;9.256;2023-04-03T15:35:15;1.20;;;1.05;;
12177;SDS011;6152;48.728;9.256;2023-04-03T15:37:41;3.30;;;1.20;;
12177;SDS011;6152;48.728;9.256;2023-04-03T15:40:08;1.23;;;1.13;;
12177;SDS011;6152;48.728;9.256;2023-04-03T15:42:34;3.67;;;1.40;;
12177;SDS011;6152;48.728;9.256;2023-04-03T15:45:00;2.47;;;1.23;;
12177;SDS011;6152;48.728;9.256;2023-04-03T15:47:27;1.23;;;1.00;;
12177;SDS011;6152;48.728;9.256;2023-04-03T15:49:53;1.00;;;0.93;;
12177;SDS011;6152;48.728;9.256;2023-04-03T15:52:24;2.03;;;0.98;;
12177;SDS011;6152;48.728;9.256;2023-04-03T15:54:50;1.00;;;0.80;;
12177;SDS011;6152;48.728;9.256;2023-04-03T15:57:16;1.55;;;0.88;;
12177;SDS011;6152;48.728;9.256;2023-04-03T15:59:42;2.25;;;0.88;;
12177;SDS011;6152;48.728;9.256;2023-04-03T16:02:10;1.15;;;0.95;;
12177;SDS011;6152;48.728;9.256;2023-04-03T16:04:38;1.27;;;0.82;;
12177;SDS011;6152;48.728;9.256;2023-04-03T16:07:04;2.47;;;1.23;;
12177;SDS011;6152;48.728;9.256;2023-04-03T16:09:31;1.25;;;0.90;;
12177;SDS011;6152;48.728;9.256;2023-04-03T16:11:59;0.80;;;0.77;;
12177;SDS011;6152;48.728;9.256;2023-04-03T16:14:26;0.80;;;0.80;;
12177;SDS011;6152;48.728;9.256;2023-04-03T16:16:55;0.82;;;0.70;;
12177;SDS011;6152;48.728;9.256;2023-04-03T16:19:22;2.65;;;1.02;;
12177;SDS011;6152;48.728;9.256;2023-04-03T16:21:48;2.35;;;1.10;;
12177;SDS011;6152;48.728;9.256;2023-04-03T16:24:14;1.10;;;1.00;;
12177;SDS011;6152;48.728;9.256;2023-04-03T16:26:40;2.05;;;0.95;;
12177;SDS011;6152;48.728;9.256;2023-04-03T16:29:06;1.25;;;0.95;;
12177;SDS011;6152;48.728;9.256;2023-04-03T16:31:32;1.42;;;0.88;;
12177;SDS011;6152;48.728;9.256;2023-04-03T16:33:59;1.95;;;1.25;;
12177;SDS011;6152;48.728;9.256;2023-04-03T16:36:26;3.70;;;1.35;;
12177;SDS011;6152;48.728;9.256;2023-04-03T16:38:52;1.98;;;1.10;;
12177;SDS011;6152;48.728;9.256;2023-04-03T16:41:18;1.13;;;0.90;;
12177;SDS011;6152;48.728;9.256;2023-04-03T16:43:44;1.63;;;1.10;;
12177;SDS011;6152;48.728;9.256;2023-04-03T16:46:10;1.23;;;0.95;;
12177;SDS011;6152;48.728;9.256;2023-04-03T16:48:37;1.55;;;1.02;;
12177;SDS011;6152;48.728;9.256;2023-04-03T16:51:03;2.17;;;1.10;;
12177;SDS011;6152;48.728;9.256;2023-04-03T16:53:29;2.47;;;1.50;;
12177;SDS011;6152;48.728;9.256;2023-04-03T16:55:56;2.92;;;1.20;;
12177;SDS011;6152;48.728;9.256;2023-04-03T16:58:23;1.67;;;0.90;;
12177;SDS011;6152;48.728;9.256;2023-04-03T17:00:49;2.00;;;1.20;;
12177;SDS011;6152;48.728;9.256;2023-04-03T17:03:15;1.88;;;1.10;;
12177;SDS011;6152;48.728;9.256;2023-04-03T17:05:42;1.33;;;1.20;;
12177;SDS011;6152;48.728;9.256;2023-04-03T17:08:11;1.40;;;0.77;;
12177;SDS011;6152;48.728;9.256;2023-04-03T17:10:38;1.23;;;1.13;;
12177;SDS011;6152;48.728;9.256;2023-04-03T17:13:05;1.67;;;1.05;;
12177;SDS011;6152;48.728;9.256;2023-04-03T17:15:31;2.38;;;1.52;;
12177;SDS011;6152;48.728;9.256;2023-04-03T17:17:57;1.65;;;0.90;;
12177;SDS011;6152;48.728;9.256;2023-04-03T17:20:23;1.63;;;1.10;;